createdAt,value
2022-12-31T00:00:00.521Z,99316.44
2022-12-31T00:02:27.251Z,99321.84
2022-12-31T00:04:54.841Z,99317.97
2022-12-31T00:07:21.249Z,99338.06
2022-12-31T00:09:47.659Z,99334.47
2022-12-31T00:12:14.097Z,99333.13
2022-12-31T00:14:40.486Z,99354.66
2022-12-31T00:17:07.329Z,99354.47
2022-12-31T00:19:33.979Z,99351.44
2022-12-31T00:22:00.623Z,99353.56
2022-12-31T00:24:30.994Z,99358.59
2022-12-31T00:26:59.357Z,99362.50
2022-12-31T00:29:25.990Z,99364.00
2022-12-31T00:31:52.493Z,99355.81
2022-12-31T00:34:21.966Z,99365.91
2022-12-31T00:36:49.100Z,99362.69
2022-12-31T00:39:15.628Z,99358.59
2022-12-31T00:41:43.945Z,99366.41
2022-12-31T00:44:13.786Z,99368.53
2022-12-31T00:49:06.239Z,99380.06
2022-12-31T00:51:33.365Z,99379.31
2022-12-31T00:54:00.520Z,99387.06
2022-12-31T00:56:29.517Z,99396.66
2022-12-31T00:58:56.794Z,99394.63
2022-12-31T01:01:30.120Z,99394.97
2022-12-31T01:04:03.950Z,99400.41
2022-12-31T01:06:31.114Z,99400.22
2022-12-31T01:08:58.057Z,99398.84
2022-12-31T01:11:29.148Z,99396.84
2022-12-31T01:14:04.854Z,99395.88
2022-12-31T01:16:34.282Z,99410.69
2022-12-31T01:19:03.813Z,99423.16
2022-12-31T01:21:30.589Z,99417.47
2022-12-31T01:23:58.570Z,99414.94
2022-12-31T01:26:25.351Z,99420.66
2022-12-31T01:28:51.807Z,99416.50
2022-12-31T01:31:20.630Z,99424.59
2022-12-31T01:33:47.575Z,99430.00
2022-12-31T01:36:34.130Z,99424.97
2022-12-31T01:39:02.341Z,99444.81
2022-12-31T01:41:32.077Z,99460.47
2022-12-31T01:44:00.891Z,99459.13
2022-12-31T01:46:34.656Z,99465.69
2022-12-31T01:49:30.744Z,99449.38
2022-12-31T01:52:02.003Z,99454.09
2022-12-31T01:54:29.944Z,99462.66
2022-12-31T01:56:56.654Z,99468.72
2022-12-31T01:59:24.439Z,99461.16
2022-12-31T02:01:54.045Z,99455.25
2022-12-31T02:04:22.973Z,99461.31
2022-12-31T02:07:01.985Z,99474.25
2022-12-31T02:09:29.783Z,99459.13
2022-12-31T02:11:56.508Z,99476.63
2022-12-31T02:14:34.820Z,99466.19
2022-12-31T02:17:09.958Z,99449.03
2022-12-31T02:19:55.727Z,99466.03
2022-12-31T02:22:32.023Z,99471.06
2022-12-31T02:25:13.343Z,99469.03
2022-12-31T02:28:30.675Z,99461.31
2022-12-31T02:31:04.074Z,99456.59
2022-12-31T02:33:35.664Z,99450.91
2022-12-31T02:36:06.143Z,99456.28
2022-12-31T02:38:35.677Z,99444.34
2022-12-31T02:41:02.542Z,99440.31
2022-12-31T02:43:29.596Z,99439.78
2022-12-31T02:46:15.774Z,99444.34
2022-12-31T02:48:47.240Z,99447.38
2022-12-31T02:51:27.006Z,99444.16
2022-12-31T02:54:05.281Z,99436.41
2022-12-31T02:56:45.267Z,99427.16
2022-12-31T02:59:40.377Z,99421.09
2022-12-31T03:02:14.824Z,99402.41
2022-12-31T03:04:45.697Z,99400.69
2022-12-31T03:07:15.171Z,99414.50
2022-12-31T03:09:41.757Z,99422.22
2022-12-31T03:12:29.141Z,99433.00
2022-12-31T03:14:55.677Z,99435.84
2022-12-31T03:17:22.285Z,99428.97
2022-12-31T03:20:07.807Z,99429.81
2022-12-31T03:22:36.634Z,99435.00
2022-12-31T03:25:32.630Z,99437.03
2022-12-31T03:28:00.483Z,99438.16
2022-12-31T03:30:27.080Z,99441.34
2022-12-31T03:32:56.385Z,99433.94
2022-12-31T03:35:23.603Z,99428.19
2022-12-31T03:37:51.034Z,99441.63
2022-12-31T03:40:18.732Z,99433.66
2022-12-31T03:42:45.373Z,99434.09
2022-12-31T03:45:12.856Z,99425.59
2022-12-31T03:47:39.764Z,99421.56
2022-12-31T03:50:07.771Z,99417.75
2022-12-31T03:52:34.424Z,99416.00
2022-12-31T03:55:02.132Z,99418.31
2022-12-31T03:57:29.247Z,99418.88
2022-12-31T03:59:55.816Z,99411.41
2022-12-31T04:02:28.991Z,99410.47
2022-12-31T04:04:56.277Z,99417.50
2022-12-31T04:07:22.853Z,99421.84
2022-12-31T04:09:49.413Z,99418.47
2022-12-31T04:12:16.028Z,99424.47
2022-12-31T04:14:42.541Z,99417.19
2022-12-31T04:17:09.073Z,99418.50
2022-12-31T04:19:35.565Z,99417.22
2022-12-31T04:22:01.977Z,99421.13
2022-12-31T04:24:28.500Z,99416.75
2022-12-31T04:26:55.062Z,99421.84
2022-12-31T04:29:21.498Z,99417.78
2022-12-31T04:31:48.090Z,99412.59
2022-12-31T04:34:14.606Z,99403.28
2022-12-31T04:36:41.082Z,99401.09
2022-12-31T04:39:08.190Z,99400.25
2022-12-31T04:41:34.811Z,99397.19
2022-12-31T04:44:01.433Z,99396.38
2022-12-31T04:46:32.782Z,99393.00
2022-12-31T04:48:59.784Z,99404.06
2022-12-31T04:51:27.276Z,99406.81
2022-12-31T04:53:54.646Z,99396.38
2022-12-31T04:56:21.510Z,99405.69
2022-12-31T04:58:47.990Z,99410.06
2022-12-31T05:01:14.818Z,99410.69
2022-12-31T05:03:41.572Z,99413.88
2022-12-31T05:06:16.171Z,99405.66
2022-12-31T05:08:42.821Z,99414.63
2022-12-31T05:11:09.659Z,99405.03
2022-12-31T05:13:36.189Z,99403.22
2022-12-31T05:16:03.853Z,99394.69
2022-12-31T05:18:31.318Z,99398.88
2022-12-31T05:20:57.758Z,99403.53
2022-12-31T05:23:24.555Z,99404.38
2022-12-31T05:25:51.274Z,99398.59
2022-12-31T05:28:18.335Z,99394.41
2022-12-31T05:30:45.291Z,99403.25
2022-12-31T05:33:11.775Z,99396.09
2022-12-31T05:35:38.217Z,99397.38
2022-12-31T05:38:04.671Z,99398.03
2022-12-31T05:40:31.241Z,99394.31
2022-12-31T05:42:57.659Z,99400.81
2022-12-31T05:45:30.391Z,99387.41
2022-12-31T05:47:57.744Z,99413.75
2022-12-31T05:50:24.307Z,99425.25
2022-12-31T05:52:50.787Z,99432.28
2022-12-31T05:55:17.567Z,99431.91
2022-12-31T05:57:43.939Z,99421.31
2022-12-31T06:00:11.534Z,99427.19
2022-12-31T06:02:38.085Z,99426.81
2022-12-31T06:05:05.187Z,99436.50
2022-12-31T06:07:31.890Z,99445.63
2022-12-31T06:09:58.338Z,99451.53
2022-12-31T06:12:24.791Z,99447.78
2022-12-31T06:14:51.200Z,99436.06
2022-12-31T06:17:17.732Z,99437.00
2022-12-31T06:19:44.143Z,99434.00
2022-12-31T06:22:10.573Z,99436.72
2022-12-31T06:24:36.964Z,99432.19
2022-12-31T06:27:03.695Z,99419.44
2022-12-31T06:29:30.097Z,99422.91
2022-12-31T06:31:56.643Z,99433.00
2022-12-31T06:34:23.012Z,99432.06
2022-12-31T06:36:49.461Z,99429.69
2022-12-31T06:39:15.894Z,99434.09
2022-12-31T06:41:42.363Z,99420.63
2022-12-31T06:44:08.754Z,99420.94
2022-12-31T06:46:35.297Z,99413.03
2022-12-31T06:49:01.742Z,99414.13
2022-12-31T06:51:28.190Z,99416.00
2022-12-31T06:53:54.620Z,99413.28
2022-12-31T06:56:31.377Z,99425.97
2022-12-31T06:59:00.353Z,99441.00
2022-12-31T07:01:45.709Z,99442.63
2022-12-31T07:04:32.702Z,99437.72
2022-12-31T07:07:12.035Z,99439.84
2022-12-31T07:10:07.581Z,99459.19
2022-12-31T07:13:24.124Z,99455.72
2022-12-31T07:16:02.388Z,99451.97
2022-12-31T07:19:04.083Z,99464.88
2022-12-31T07:21:34.979Z,99458.94
2022-12-31T07:24:01.971Z,99459.88
2022-12-31T07:26:52.573Z,99461.63
2022-12-31T07:29:25.261Z,99442.75
2022-12-31T07:32:16.114Z,99449.63
2022-12-31T07:35:05.540Z,99451.16
2022-12-31T07:38:06.280Z,99447.16
2022-12-31T07:40:57.701Z,99455.53
2022-12-31T07:43:27.129Z,99449.16
2022-12-31T07:46:14.883Z,99457.34
2022-12-31T07:48:41.472Z,99462.19
2022-12-31T07:51:10.288Z,99466.69
2022-12-31T07:53:36.860Z,99469.00
2022-12-31T07:56:05.960Z,99466.47
2022-12-31T07:58:48.020Z,99468.19
2022-12-31T08:01:17.210Z,99468.06
2022-12-31T08:04:06.078Z,99450.22
2022-12-31T08:07:01.614Z,99463.06
2022-12-31T08:09:52.942Z,99490.66
2022-12-31T08:12:20.694Z,99495.03
2022-12-31T08:14:48.436Z,99501.44
2022-12-31T08:17:16.540Z,99492.69
2022-12-31T08:19:43.546Z,99490.19
2022-12-31T08:22:35.096Z,99488.16
2022-12-31T08:25:12.248Z,99487.72
2022-12-31T08:28:12.831Z,99487.31
2022-12-31T08:30:47.196Z,99482.72
2022-12-31T08:33:24.021Z,99491.91
2022-12-31T08:36:07.679Z,99480.03
2022-12-31T08:38:40.944Z,99484.81
2022-12-31T08:41:16.740Z,99484.00
2022-12-31T08:43:53.176Z,99485.47
2022-12-31T08:46:28.140Z,99495.69
2022-12-31T08:48:55.044Z,99470.19
2022-12-31T08:51:23.079Z,99473.97
2022-12-31T08:53:50.371Z,99462.22
2022-12-31T08:56:32.876Z,99483.13
2022-12-31T08:59:13.479Z,99474.78
2022-12-31T09:02:19.207Z,99488.81
2022-12-31T09:05:16.868Z,99476.22
2022-12-31T09:07:58.611Z,99490.44
2022-12-31T09:10:30.694Z,99489.75
2022-12-31T09:13:21.751Z,99503.09
2022-12-31T09:16:14.097Z,99503.97
2022-12-31T09:18:41.916Z,99498.16
2022-12-31T09:21:14.435Z,99489.81
2022-12-31T09:23:41.213Z,99504.66
2022-12-31T09:26:23.092Z,99501.50
2022-12-31T09:29:04.538Z,99524.13
2022-12-31T09:31:36.304Z,99511.56
2022-12-31T09:34:21.404Z,99516.41
2022-12-31T09:36:59.075Z,99534.22
2022-12-31T09:39:38.299Z,99524.38
2022-12-31T09:42:31.244Z,99518.94
2022-12-31T09:45:35.326Z,99512.84
2022-12-31T09:48:29.936Z,99516.63
2022-12-31T09:51:25.640Z,99542.53
2022-12-31T09:54:14.076Z,99516.53
2022-12-31T09:57:10.047Z,99520.22
2022-12-31T09:59:44.100Z,99524.13
2022-12-31T10:02:29.528Z,99519.72
2022-12-31T10:05:04.187Z,99523.81
2022-12-31T10:07:56.801Z,99506.38
2022-12-31T10:10:51.557Z,99511.69
2022-12-31T10:13:32.804Z,99513.25
2022-12-31T10:16:40.492Z,99526.84
2022-12-31T10:19:12.973Z,99523.47
2022-12-31T10:22:01.589Z,99519.28
2022-12-31T10:24:27.973Z,99509.00
2022-12-31T10:26:57.359Z,99530.47
2022-12-31T10:29:54.908Z,99518.66
2022-12-31T10:32:31.613Z,99524.34
2022-12-31T10:35:17.191Z,99527.31
2022-12-31T10:38:08.357Z,99527.94
2022-12-31T10:40:57.799Z,99535.69
2022-12-31T10:44:02.066Z,99540.06
2022-12-31T10:46:56.083Z,99532.91
2022-12-31T10:49:44.129Z,99530.59
2022-12-31T10:52:39.799Z,99551.53
2022-12-31T10:55:27.694Z,99555.97
2022-12-31T10:58:31.879Z,99552.19
2022-12-31T11:01:09.961Z,99550.75
2022-12-31T11:03:59.072Z,99538.56
2022-12-31T11:06:39.344Z,99543.84
2022-12-31T11:09:39.488Z,99549.72
2022-12-31T11:12:22.657Z,99550.09
2022-12-31T11:15:18.844Z,99549.69
2022-12-31T11:17:51.784Z,99536.47
2022-12-31T11:20:38.473Z,99540.69
2022-12-31T11:23:35.956Z,99533.16
2022-12-31T11:26:24.110Z,99545.50
2022-12-31T11:29:02.951Z,99538.81
2022-12-31T11:31:36.775Z,99534.41
2022-12-31T11:34:27.539Z,99525.56
2022-12-31T11:37:18.412Z,99546.34
2022-12-31T11:39:51.786Z,99545.78
2022-12-31T11:42:27.256Z,99555.38
2022-12-31T11:45:19.084Z,99537.38
2022-12-31T11:48:29.549Z,99546.25
2022-12-31T11:51:18.469Z,99551.91
2022-12-31T11:54:01.119Z,99549.41
2022-12-31T11:56:34.090Z,99544.09
2022-12-31T11:59:06.152Z,99538.38
2022-12-31T12:01:51.797Z,99546.63
2022-12-31T12:04:18.347Z,99547.88
2022-12-31T12:06:45.989Z,99556.50
2022-12-31T12:09:24.979Z,99558.38
2022-12-31T12:11:59.136Z,99553.34
2022-12-31T12:14:37.806Z,99561.88
2022-12-31T12:17:08.400Z,99551.16
2022-12-31T12:19:35.662Z,99540.50
2022-12-31T12:22:14.238Z,99547.44
2022-12-31T12:24:40.660Z,99553.03
2022-12-31T12:27:20.857Z,99549.94
2022-12-31T12:29:47.970Z,99565.53
2022-12-31T12:32:17.972Z,99555.31
2022-12-31T12:34:49.314Z,99558.22
2022-12-31T12:37:25.160Z,99546.19
2022-12-31T12:40:21.929Z,99560.22
2022-12-31T12:42:49.700Z,99542.44
2022-12-31T12:45:19.068Z,99568.56
2022-12-31T12:47:51.092Z,99551.88
2022-12-31T12:50:23.940Z,99553.72
2022-12-31T12:52:59.686Z,99549.38
2022-12-31T12:56:06.899Z,99555.69
2022-12-31T12:58:46.614Z,99552.41
2022-12-31T13:02:11.880Z,99548.69
2022-12-31T13:05:00.738Z,99556.63
2022-12-31T13:07:44.490Z,99557.59
2022-12-31T13:10:19.289Z,99544.31
2022-12-31T13:13:24.599Z,99551.72
2022-12-31T13:15:59.038Z,99560.38
2022-12-31T13:18:45.167Z,99554.19
2022-12-31T13:21:23.968Z,99548.81
2022-12-31T13:23:58.518Z,99550.69
2022-12-31T13:26:32.884Z,99558.69
2022-12-31T13:29:02.017Z,99563.75
2022-12-31T13:31:34.331Z,99568.34
2022-12-31T13:34:24.798Z,99555.16
2022-12-31T13:36:53.017Z,99561.47
2022-12-31T13:39:24.506Z,99571.13
2022-12-31T13:41:53.847Z,99562.94
2022-12-31T13:44:44.201Z,99575.50
2022-12-31T13:47:22.794Z,99579.28
2022-12-31T13:49:56.524Z,99598.34
2022-12-31T13:52:36.476Z,99583.06
2022-12-31T13:55:11.181Z,99584.75
2022-12-31T13:57:42.950Z,99577.66
2022-12-31T14:00:22.665Z,99586.88
2022-12-31T14:02:57.485Z,99578.50
2022-12-31T14:05:49.066Z,99578.53
2022-12-31T14:08:15.791Z,99591.72
2022-12-31T14:10:51.013Z,99598.84
2022-12-31T14:13:45.413Z,99586.06
2022-12-31T14:16:20.502Z,99600.31
2022-12-31T14:18:59.038Z,99604.72
2022-12-31T14:21:39.962Z,99617.94
2022-12-31T14:24:18.559Z,99617.94
2022-12-31T14:26:51.995Z,99621.06
2022-12-31T14:29:26.935Z,99629.66
2022-12-31T14:32:12.138Z,99637.00
2022-12-31T14:34:56.479Z,99647.25
2022-12-31T14:38:00.654Z,99641.81
2022-12-31T14:40:53.200Z,99648.31
2022-12-31T14:43:39.965Z,99657.50
2022-12-31T14:46:23.078Z,99644.34
2022-12-31T14:48:58.044Z,99646.00
2022-12-31T14:51:29.496Z,99647.88
2022-12-31T14:53:57.423Z,99643.47
2022-12-31T14:56:30.182Z,99648.50
2022-12-31T14:58:59.367Z,99643.28
2022-12-31T15:01:26.418Z,99647.06
2022-12-31T15:03:55.705Z,99652.69
2022-12-31T15:06:56.668Z,99652.91
2022-12-31T15:09:42.273Z,99654.81
2022-12-31T15:12:33.375Z,99650.81
2022-12-31T15:15:48.230Z,99664.00
2022-12-31T15:18:32.407Z,99668.19
2022-12-31T15:21:31.636Z,99670.50
2022-12-31T15:23:58.107Z,99653.53
2022-12-31T15:26:34.724Z,99664.63
2022-12-31T15:29:06.802Z,99679.50
2022-12-31T15:31:35.106Z,99677.41
2022-12-31T15:34:06.887Z,99678.63
2022-12-31T15:36:35.717Z,99689.53
2022-12-31T15:39:11.368Z,99692.88
2022-12-31T15:42:10.270Z,99698.06
2022-12-31T15:44:52.206Z,99687.16
2022-12-31T15:47:29.460Z,99689.66
2022-12-31T15:49:59.275Z,99692.38
2022-12-31T15:52:34.413Z,99687.56
2022-12-31T15:55:04.712Z,99681.91
2022-12-31T15:57:34.204Z,99696.78
2022-12-31T16:00:03.056Z,99692.38
2022-12-31T16:02:29.552Z,99680.69
2022-12-31T16:04:56.247Z,99697.63
2022-12-31T16:07:24.387Z,99694.91
2022-12-31T16:09:53.080Z,99697.38
2022-12-31T16:12:25.409Z,99700.72
2022-12-31T16:14:56.967Z,99702.38
2022-12-31T16:17:28.118Z,99704.91
2022-12-31T16:19:55.468Z,99698.22
2022-12-31T16:22:29.475Z,99710.75
2022-12-31T16:27:45.050Z,99711.56
2022-12-31T16:30:22.058Z,99699.47
2022-12-31T16:32:50.279Z,99716.66
2022-12-31T16:35:31.263Z,99724.59
2022-12-31T16:38:18.039Z,99711.22
2022-12-31T16:41:24.139Z,99717.09
2022-12-31T16:43:50.928Z,99716.25
2022-12-31T16:46:25.548Z,99721.25
2022-12-31T16:48:59.202Z,99725.88
2022-12-31T16:51:28.759Z,99731.09
2022-12-31T16:53:55.443Z,99734.88
2022-12-31T16:56:42.104Z,99718.13
2022-12-31T16:59:23.396Z,99721.28
2022-12-31T17:01:51.011Z,99715.16
2022-12-31T17:04:19.845Z,99716.44
2022-12-31T17:06:47.523Z,99725.94
2022-12-31T17:09:21.931Z,99719.47
2022-12-31T17:11:56.722Z,99729.09
2022-12-31T17:14:25.694Z,99717.56
2022-12-31T17:17:05.036Z,99725.13
2022-12-31T17:19:45.302Z,99720.53
2022-12-31T17:22:32.901Z,99725.31
2022-12-31T17:25:05.727Z,99714.25
2022-12-31T17:27:32.613Z,99727.63
2022-12-31T17:30:30.115Z,99730.97
2022-12-31T17:33:01.643Z,99743.56
2022-12-31T17:35:33.391Z,99753.19
2022-12-31T17:38:23.008Z,99758.59
2022-12-31T17:41:31.526Z,99746.47
2022-12-31T17:43:58.015Z,99755.47
2022-12-31T17:46:25.230Z,99756.09
2022-12-31T17:48:56.177Z,99757.78
2022-12-31T17:51:24.713Z,99761.34
2022-12-31T17:53:51.285Z,99758.81
2022-12-31T17:56:18.322Z,99774.50
2022-12-31T17:58:47.801Z,99772.94
2022-12-31T18:01:16.863Z,99779.44
2022-12-31T18:03:43.848Z,99775.66
2022-12-31T18:06:16.288Z,99777.34
2022-12-31T18:08:43.511Z,99777.28
2022-12-31T18:11:23.647Z,99784.41
2022-12-31T18:13:50.210Z,99785.03
2022-12-31T18:16:16.647Z,99776.03
2022-12-31T18:18:45.173Z,99778.31
2022-12-31T18:21:22.895Z,99774.13
2022-12-31T18:23:49.684Z,99781.63
2022-12-31T18:26:20.911Z,99775.56
2022-12-31T18:28:47.801Z,99773.28
2022-12-31T18:31:32.384Z,99765.94
2022-12-31T18:33:58.989Z,99767.84
2022-12-31T18:36:26.133Z,99769.72
2022-12-31T18:38:52.972Z,99763.59
2022-12-31T18:41:26.760Z,99755.03
2022-12-31T18:43:53.642Z,99752.56
2022-12-31T18:46:22.512Z,99749.19
2022-12-31T18:48:49.030Z,99753.41
2022-12-31T18:51:30.985Z,99744.19
2022-12-31T18:54:01.043Z,99750.88
2022-12-31T18:56:28.030Z,99755.03
2022-12-31T18:58:54.507Z,99753.31
2022-12-31T19:01:35.217Z,99741.38
2022-12-31T19:04:04.478Z,99751.63
2022-12-31T19:06:31.022Z,99745.75
2022-12-31T19:08:59.183Z,99742.38
2022-12-31T19:11:27.402Z,99743.88
2022-12-31T19:13:53.800Z,99735.47
2022-12-31T19:16:20.237Z,99735.72
2022-12-31T19:18:47.536Z,99741.09
2022-12-31T19:21:20.503Z,99733.75
2022-12-31T19:23:46.926Z,99740.66
2022-12-31T19:26:18.249Z,99739.22
2022-12-31T19:28:45.513Z,99743.13
2022-12-31T19:31:12.300Z,99740.94
2022-12-31T19:33:38.884Z,99732.34
2022-12-31T19:36:07.348Z,99728.50
2022-12-31T19:38:36.939Z,99735.03
2022-12-31T19:41:03.403Z,99727.81
2022-12-31T19:43:29.867Z,99730.41
2022-12-31T19:45:56.661Z,99730.59
2022-12-31T19:48:30.481Z,99731.59
2022-12-31T19:50:59.027Z,99723.63
2022-12-31T19:53:26.898Z,99731.59
2022-12-31T19:55:53.537Z,99728.22
2022-12-31T19:58:22.478Z,99728.25
2022-12-31T20:00:54.811Z,99734.09
2022-12-31T20:03:25.123Z,99728.41
2022-12-31T20:05:51.588Z,99729.88
2022-12-31T20:08:20.199Z,99728.34
2022-12-31T20:10:46.879Z,99727.38
2022-12-31T20:13:13.225Z,99730.28
2022-12-31T20:15:39.640Z,99728.19
2022-12-31T20:18:06.373Z,99723.91
2022-12-31T20:20:32.870Z,99733.41
2022-12-31T20:22:59.276Z,99734.00
2022-12-31T20:25:25.794Z,99740.16
2022-12-31T20:27:54.365Z,99740.66
2022-12-31T20:30:23.483Z,99731.06
2022-12-31T20:32:52.088Z,99738.34
2022-12-31T20:35:19.403Z,99739.28
2022-12-31T20:37:46.116Z,99736.16
2022-12-31T20:40:14.173Z,99723.69
2022-12-31T20:42:41.194Z,99728.28
2022-12-31T20:45:09.370Z,99718.69
2022-12-31T20:47:36.220Z,99723.00
2022-12-31T20:50:14.365Z,99721.56
2022-12-31T20:52:42.156Z,99725.38
2022-12-31T20:55:09.700Z,99723.28
2022-12-31T20:57:36.513Z,99716.81
2022-12-31T21:00:04.550Z,99713.06
2022-12-31T21:02:41.631Z,99705.53
2022-12-31T21:05:09.834Z,99702.38
2022-12-31T21:07:36.419Z,99695.09
2022-12-31T21:10:02.864Z,99689.41
2022-12-31T21:12:44.764Z,99684.03
2022-12-31T21:15:12.529Z,99672.72
2022-12-31T21:17:39.019Z,99674.88
2022-12-31T21:20:06.169Z,99673.56
2022-12-31T21:22:33.756Z,99669.44
2022-12-31T21:25:01.496Z,99658.75
2022-12-31T21:27:29.632Z,99655.22
2022-12-31T21:32:43.132Z,99656.47
2022-12-31T21:38:03.011Z,99651.88
2022-12-31T21:40:30.110Z,99664.84
2022-12-31T21:42:56.730Z,99653.94
2022-12-31T21:45:23.190Z,99654.59
2022-12-31T21:48:08.306Z,99664.00
2022-12-31T21:50:34.915Z,99664.84
2022-12-31T21:53:01.370Z,99675.50
2022-12-31T21:55:46.840Z,99673.41
2022-12-31T21:58:30.907Z,99684.53
2022-12-31T22:01:17.359Z,99687.47
2022-12-31T22:03:44.693Z,99700.00
2022-12-31T22:06:24.519Z,99702.75
2022-12-31T22:08:53.219Z,99714.88
2022-12-31T22:11:23.382Z,99710.91
2022-12-31T22:13:50.855Z,99728.75
2022-12-31T22:16:19.552Z,99716.16
2022-12-31T22:18:46.480Z,99725.56
2022-12-31T22:21:21.124Z,99738.97
2022-12-31T22:23:49.621Z,99757.38
2022-12-31T22:26:18.841Z,99759.06
2022-12-31T22:28:46.481Z,99756.75
2022-12-31T22:31:14.928Z,99767.88
2022-12-31T22:33:42.622Z,99776.59
2022-12-31T22:36:13.996Z,99771.56
2022-12-31T22:38:40.987Z,99776.19
2022-12-31T22:41:10.645Z,99778.97
2022-12-31T22:43:40.692Z,99776.44
2022-12-31T22:46:15.983Z,99784.19
2022-12-31T22:48:42.777Z,99785.03
2022-12-31T22:51:10.533Z,99794.63
2022-12-31T22:53:39.517Z,99789.81
2022-12-31T22:56:06.615Z,99790.03
2022-12-31T22:58:33.058Z,99801.94
2022-12-31T23:00:59.592Z,99796.75
2022-12-31T23:03:27.121Z,99812.38
2022-12-31T23:05:53.952Z,99817.53
2022-12-31T23:08:23.524Z,99814.25
2022-12-31T23:11:02.779Z,99816.78
2022-12-31T23:13:57.205Z,99816.38
2022-12-31T23:16:47.717Z,99819.31
2022-12-31T23:19:34.709Z,99818.47
2022-12-31T23:22:20.302Z,99829.47
2022-12-31T23:24:46.949Z,99825.75
2022-12-31T23:27:13.590Z,99822.63
2022-12-31T23:29:46.820Z,99825.16
2022-12-31T23:32:15.538Z,99823.06
2022-12-31T23:34:44.351Z,99818.03
2022-12-31T23:37:12.598Z,99817.81
2022-12-31T23:39:39.222Z,99814.16
2022-12-31T23:42:06.466Z,99817.97
2022-12-31T23:44:33.105Z,99817.91
2022-12-31T23:46:59.816Z,99820.03
2022-12-31T23:49:26.528Z,99821.72
2022-12-31T23:51:53.186Z,99824.00
2022-12-31T23:54:19.735Z,99833.44
2022-12-31T23:56:47.807Z,99833.72
2022-12-31T23:59:14.435Z,99843.16
